createdAt,value
2017-10-08T00:00:55.602Z,9.20
2017-10-08T00:03:23.097Z,9.20
2017-10-08T00:05:51.334Z,9.30
2017-10-08T00:08:18.805Z,9.30
2017-10-08T00:10:46.298Z,9.30
2017-10-08T00:13:14.532Z,9.20
2017-10-08T00:15:41.997Z,9.20
2017-10-08T00:18:09.488Z,9.20
2017-10-08T00:20:37.758Z,9.00
2017-10-08T00:23:05.453Z,9.00
2017-10-08T00:25:32.982Z,8.90
2017-10-08T00:28:01.247Z,9.00
2017-10-08T00:30:29.510Z,9.00
2017-10-08T00:32:57.004Z,9.00
2017-10-08T00:35:24.472Z,9.10
2017-10-08T00:37:51.938Z,9.10
2017-10-08T00:40:19.426Z,9.00
2017-10-08T00:42:46.933Z,9.00
2017-10-08T00:45:14.430Z,9.00
2017-10-08T00:47:41.960Z,9.00
2017-10-08T00:50:09.733Z,9.00
2017-10-08T00:52:37.202Z,9.00
2017-10-08T00:55:04.693Z,9.00
2017-10-08T00:57:32.569Z,9.00
2017-10-08T01:00:00.820Z,9.00
2017-10-08T01:02:28.552Z,9.00
2017-10-08T01:04:56.022Z,9.00
2017-10-08T01:07:23.490Z,9.00
2017-10-08T01:09:50.977Z,9.00
2017-10-08T01:12:19.209Z,9.10
2017-10-08T01:14:46.681Z,9.00
2017-10-08T01:17:14.938Z,9.10
2017-10-08T01:19:42.405Z,9.10
2017-10-08T01:22:09.873Z,9.10
2017-10-08T01:24:37.361Z,9.10
2017-10-08T01:27:05.594Z,9.20
2017-10-08T01:29:33.061Z,9.20
2017-10-08T01:32:00.794Z,9.10
2017-10-08T01:34:28.557Z,9.10
2017-10-08T01:36:56.024Z,9.20
2017-10-08T01:39:23.537Z,9.20
2017-10-08T01:41:51.849Z,9.20
2017-10-08T01:44:19.325Z,9.20
2017-10-08T01:46:46.817Z,9.20
2017-10-08T01:49:14.286Z,9.20
2017-10-08T01:51:42.518Z,9.20
2017-10-08T01:54:10.006Z,9.20
2017-10-08T01:56:37.472Z,9.30
2017-10-08T01:59:05.705Z,9.30
2017-10-08T02:01:33.198Z,9.20
2017-10-08T02:04:01.433Z,9.30
2017-10-08T02:06:28.901Z,9.20
2017-10-08T02:08:56.386Z,9.30
2017-10-08T02:11:24.621Z,9.20
2017-10-08T02:13:52.763Z,9.20
2017-10-08T02:16:20.230Z,9.30
2017-10-08T02:18:47.701Z,9.30
2017-10-08T02:21:15.189Z,9.30
2017-10-08T02:23:42.658Z,9.30
2017-10-08T02:26:10.148Z,9.40
2017-10-08T02:28:37.617Z,9.40
2017-10-08T02:31:05.088Z,9.40
2017-10-08T02:33:32.579Z,9.50
2017-10-08T02:36:00.297Z,9.50
2017-10-08T02:38:27.789Z,9.40
2017-10-08T02:40:55.253Z,9.50
2017-10-08T02:43:22.720Z,9.50
2017-10-08T02:45:50.214Z,9.50
2017-10-08T02:48:17.678Z,9.50
2017-10-08T02:50:45.154Z,9.50
2017-10-08T02:53:13.409Z,9.40
2017-10-08T02:55:40.877Z,9.40
2017-10-08T02:58:08.341Z,9.40
2017-10-08T03:00:35.821Z,9.30
2017-10-08T03:03:03.550Z,9.40
2017-10-08T03:05:31.045Z,9.40
2017-10-08T03:07:58.511Z,9.30
2017-10-08T03:10:25.986Z,9.30
2017-10-08T03:12:54.241Z,9.30
2017-10-08T03:15:21.961Z,9.30
2017-10-08T03:17:49.433Z,9.30
2017-10-08T03:20:16.918Z,9.30
2017-10-08T03:22:44.393Z,9.30
2017-10-08T03:25:12.645Z,9.20
2017-10-08T03:27:40.111Z,9.20
2017-10-08T03:30:07.577Z,9.20
2017-10-08T03:32:35.841Z,9.30
2017-10-08T03:35:03.315Z,9.20
2017-10-08T03:37:31.549Z,9.30
2017-10-08T03:39:59.036Z,9.30
2017-10-08T03:42:26.515Z,9.30
2017-10-08T03:44:54.749Z,9.30
2017-10-08T03:47:22.237Z,9.30
2017-10-08T03:49:49.706Z,9.30
2017-10-08T03:52:18.231Z,9.30
2017-10-08T03:54:45.713Z,9.30
2017-10-08T03:57:13.180Z,9.30
2017-10-08T03:59:40.668Z,9.30
2017-10-08T04:02:08.137Z,9.30
2017-10-08T04:04:35.605Z,9.20
2017-10-08T04:07:03.089Z,9.30
2017-10-08T04:09:30.557Z,9.30
2017-10-08T04:11:58.025Z,9.30
2017-10-08T04:14:25.513Z,9.30
2017-10-08T04:16:52.978Z,9.30
2017-10-08T04:19:20.452Z,9.30
2017-10-08T04:21:47.940Z,9.40
2017-10-08T04:24:15.412Z,9.40
2017-10-08T04:26:43.645Z,9.30
2017-10-08T04:29:11.129Z,9.30
2017-10-08T04:31:38.592Z,9.30
2017-10-08T04:34:06.078Z,9.30
2017-10-08T04:36:33.545Z,9.30
2017-10-08T04:39:01.013Z,9.40
2017-10-08T04:41:28.501Z,9.40
2017-10-08T04:43:55.972Z,9.40
2017-10-08T04:46:23.438Z,9.40
2017-10-08T04:48:50.930Z,9.40
2017-10-08T04:51:18.422Z,9.40
2017-10-08T04:53:45.885Z,9.40
2017-10-08T04:56:13.373Z,9.40
2017-10-08T04:58:41.605Z,9.40
2017-10-08T05:01:09.073Z,9.40
2017-10-08T05:03:36.561Z,9.40
2017-10-08T05:06:04.797Z,9.50
2017-10-08T05:08:32.289Z,9.50
2017-10-08T05:10:59.757Z,9.50
2017-10-08T05:13:27.998Z,9.50
2017-10-08T05:15:55.489Z,9.50
2017-10-08T05:18:23.721Z,9.50
2017-10-08T05:20:51.193Z,9.50
2017-10-08T05:23:18.729Z,9.60
2017-10-08T05:25:46.197Z,9.50
2017-10-08T05:28:13.665Z,9.50
2017-10-08T05:30:41.159Z,9.50
2017-10-08T05:33:09.409Z,9.50
2017-10-08T05:35:36.877Z,9.50
2017-10-08T05:38:05.133Z,9.50
2017-10-08T05:40:32.602Z,9.50
2017-10-08T05:43:00.096Z,9.50
2017-10-08T05:45:27.613Z,9.50
2017-10-08T05:47:55.118Z,9.50
2017-10-08T05:50:22.620Z,9.50
2017-10-08T05:52:50.095Z,9.50
2017-10-08T05:55:18.345Z,9.60
2017-10-08T05:57:45.838Z,9.50
2017-10-08T06:00:14.078Z,9.60
2017-10-08T06:02:41.553Z,9.60
2017-10-08T06:05:09.042Z,9.60
2017-10-08T06:07:36.533Z,9.60
2017-10-08T06:10:04.010Z,9.60
2017-10-08T06:12:31.501Z,9.70
2017-10-08T06:14:59.741Z,9.60
2017-10-08T06:17:27.254Z,9.60
2017-10-08T06:19:54.761Z,9.60
2017-10-08T06:22:22.232Z,9.60
2017-10-08T06:24:49.735Z,9.70
2017-10-08T06:27:17.505Z,9.70
2017-10-08T06:29:44.977Z,9.70
2017-10-08T06:32:12.461Z,9.70
2017-10-08T06:34:39.928Z,9.70
2017-10-08T06:37:07.417Z,9.70
2017-10-08T06:39:34.882Z,9.80
2017-10-08T06:42:02.358Z,9.80
2017-10-08T06:44:29.837Z,9.80
2017-10-08T06:46:57.369Z,9.80
2017-10-08T06:49:24.928Z,9.80
2017-10-08T06:51:52.396Z,9.80
2017-10-08T06:54:19.869Z,9.80
2017-10-08T06:56:47.361Z,9.80
2017-10-08T06:59:15.873Z,9.90
2017-10-08T07:01:43.337Z,9.90
2017-10-08T07:04:10.818Z,9.90
2017-10-08T07:06:38.290Z,9.90
2017-10-08T07:09:05.776Z,9.90
2017-10-08T07:11:34.012Z,10.00
2017-10-08T07:14:01.489Z,9.90
2017-10-08T07:16:28.981Z,10.00
2017-10-08T07:18:56.674Z,10.00
2017-10-08T07:21:24.141Z,9.90
2017-10-08T07:23:51.637Z,10.00
2017-10-08T07:26:19.885Z,10.00
2017-10-08T07:28:47.360Z,10.00
2017-10-08T07:31:15.622Z,10.00
2017-10-08T07:33:43.093Z,9.90
2017-10-08T07:36:11.334Z,10.00
2017-10-08T07:38:39.669Z,10.00
2017-10-08T07:41:07.141Z,10.00
2017-10-08T07:43:34.608Z,9.90
2017-10-08T07:46:02.093Z,9.90
2017-10-08T07:48:29.565Z,10.00
2017-10-08T07:50:57.060Z,10.00
2017-10-08T07:53:24.529Z,10.10
2017-10-08T07:55:51.997Z,10.10
2017-10-08T07:58:19.493Z,10.20
2017-10-08T08:00:46.969Z,10.20
2017-10-08T08:03:15.233Z,10.20
2017-10-08T08:05:43.488Z,10.20
2017-10-08T08:08:10.962Z,10.20
2017-10-08T08:10:38.437Z,10.10
2017-10-08T08:13:06.720Z,10.10
2017-10-08T08:15:34.409Z,10.10
2017-10-08T08:18:01.880Z,10.10
2017-10-08T08:20:29.373Z,10.20
2017-10-08T08:22:57.897Z,10.30
2017-10-08T08:25:25.371Z,10.20
2017-10-08T08:27:52.856Z,10.30
2017-10-08T08:30:20.399Z,10.30
2017-10-08T08:32:47.905Z,10.30
2017-10-08T08:35:15.381Z,10.30
2017-10-08T08:37:42.853Z,10.30
2017-10-08T08:40:10.349Z,10.30
2017-10-08T08:42:37.821Z,10.40
2017-10-08T08:45:06.057Z,10.40
2017-10-08T08:47:33.544Z,10.40
2017-10-08T08:50:01.032Z,10.40
2017-10-08T08:52:28.505Z,10.40
2017-10-08T08:54:55.977Z,10.40
2017-10-08T08:57:23.473Z,10.50
2017-10-08T08:59:51.713Z,10.50
2017-10-08T09:02:19.205Z,10.50
2017-10-08T09:04:46.674Z,10.60
2017-10-08T09:07:14.919Z,10.60
2017-10-08T09:09:42.405Z,10.60
2017-10-08T09:12:10.645Z,10.70
2017-10-08T09:14:38.117Z,10.60
2017-10-08T09:17:05.605Z,10.70
2017-10-08T09:19:33.081Z,10.70
2017-10-08T09:22:00.578Z,10.80
2017-10-08T09:24:28.054Z,10.80
2017-10-08T09:26:56.297Z,10.90
2017-10-08T09:29:23.790Z,10.90
2017-10-08T09:31:52.035Z,11.00
2017-10-08T09:34:19.728Z,11.00
2017-10-08T09:36:47.986Z,11.20
2017-10-08T09:39:15.462Z,11.20
2017-10-08T09:41:43.706Z,11.30
2017-10-08T09:44:12.260Z,11.30
2017-10-08T09:46:39.833Z,11.30
2017-10-08T09:49:07.383Z,11.30
2017-10-08T09:51:34.877Z,11.40
2017-10-08T09:54:02.345Z,11.40
2017-10-08T09:56:29.855Z,11.40
2017-10-08T09:58:57.338Z,11.40
2017-10-08T10:01:24.814Z,11.40
2017-10-08T10:03:52.305Z,11.40
2017-10-08T10:06:19.782Z,11.50
2017-10-08T10:08:47.253Z,11.60
2017-10-08T10:11:14.750Z,11.70
2017-10-08T10:13:42.993Z,11.90
2017-10-08T10:16:10.464Z,11.80
2017-10-08T10:18:38.001Z,11.80
2017-10-08T10:21:05.551Z,11.80
2017-10-08T10:23:33.028Z,11.80
2017-10-08T10:26:00.521Z,11.80
2017-10-08T10:28:28.786Z,12.00
2017-10-08T10:30:56.256Z,11.90
2017-10-08T10:33:24.512Z,11.90
2017-10-08T10:35:51.989Z,11.90
2017-10-08T10:38:20.224Z,12.10
2017-10-08T10:40:47.717Z,12.00
2017-10-08T10:43:15.953Z,12.10
2017-10-08T10:45:43.429Z,12.10
2017-10-08T10:48:10.925Z,12.10
2017-10-08T10:50:38.393Z,12.10
2017-10-08T10:53:05.872Z,12.10
2017-10-08T10:55:33.361Z,12.00
2017-10-08T10:58:00.846Z,12.10
2017-10-08T11:00:29.086Z,12.10
2017-10-08T11:02:57.383Z,12.20
2017-10-08T11:05:25.903Z,12.20
2017-10-08T11:07:53.433Z,12.20
2017-10-08T11:10:21.734Z,12.00
2017-10-08T11:12:49.275Z,12.00
2017-10-08T11:15:16.785Z,12.10
2017-10-08T11:17:44.273Z,12.10
2017-10-08T11:20:12.513Z,12.20
2017-10-08T11:22:40.009Z,12.20
2017-10-08T11:25:08.267Z,12.40
2017-10-08T11:27:35.897Z,12.30
2017-10-08T11:30:03.385Z,12.40
2017-10-08T11:32:30.878Z,12.50
2017-10-08T11:34:58.369Z,12.60
2017-10-08T11:37:25.844Z,12.60
2017-10-08T11:39:53.317Z,12.70
2017-10-08T11:42:20.817Z,12.80
2017-10-08T11:44:48.384Z,12.80
2017-10-08T11:47:15.893Z,12.80
2017-10-08T11:49:43.425Z,12.90
2017-10-08T11:52:12.029Z,13.10
2017-10-08T11:54:40.584Z,13.10
2017-10-08T11:57:11.203Z,13.20
2017-10-08T11:59:38.881Z,13.40
2017-10-08T12:02:06.374Z,13.60
2017-10-08T12:04:33.873Z,13.70
2017-10-08T12:07:01.411Z,13.90
2017-10-08T12:09:28.905Z,14.10
2017-10-08T12:11:56.377Z,14.20
2017-10-08T12:14:24.049Z,14.20
2017-10-08T12:16:51.533Z,14.20
2017-10-08T12:19:19.770Z,14.10
2017-10-08T12:21:47.261Z,14.00
2017-10-08T12:24:15.501Z,14.60
2017-10-08T12:26:42.973Z,14.50
2017-10-08T12:29:11.224Z,14.70
2017-10-08T12:31:38.715Z,14.70
2017-10-08T12:34:07.161Z,14.60
2017-10-08T12:36:34.669Z,14.50
2017-10-08T12:39:02.909Z,14.40
2017-10-08T12:41:31.909Z,14.30
2017-10-08T12:43:59.397Z,14.30
2017-10-08T12:46:27.716Z,14.50
2017-10-08T12:48:55.212Z,14.40
2017-10-08T12:51:22.681Z,14.40
2017-10-08T12:53:50.921Z,14.30
2017-10-08T12:56:18.409Z,14.30
2017-10-08T12:58:46.649Z,14.30
2017-10-08T13:01:14.124Z,14.30
2017-10-08T13:03:41.609Z,14.30
2017-10-08T13:06:09.849Z,14.30
2017-10-08T13:08:37.345Z,14.20
2017-10-08T13:11:05.593Z,14.20
2017-10-08T13:13:33.072Z,14.20
2017-10-08T13:16:01.325Z,14.10
2017-10-08T13:18:28.798Z,14.10
2017-10-08T13:20:57.037Z,14.10
2017-10-08T13:23:24.529Z,14.10
2017-10-08T13:25:53.052Z,14.00
2017-10-08T13:28:20.818Z,14.00
2017-10-08T13:30:48.305Z,14.10
2017-10-08T13:33:15.781Z,14.10
2017-10-08T13:35:43.273Z,14.20
2017-10-08T13:38:10.749Z,14.30
2017-10-08T13:40:38.222Z,14.30
2017-10-08T13:43:05.717Z,14.30
2017-10-08T13:45:33.954Z,14.30
2017-10-08T13:48:01.425Z,14.30
2017-10-08T13:50:28.908Z,14.40
2017-10-08T13:52:57.144Z,14.50
2017-10-08T13:55:24.638Z,14.50
2017-10-08T13:57:52.873Z,14.50
2017-10-08T14:00:20.352Z,14.50
2017-10-08T14:02:47.844Z,14.50
2017-10-08T14:05:16.088Z,14.50
2017-10-08T14:07:43.565Z,14.40
2017-10-08T14:10:11.821Z,14.50
2017-10-08T14:12:39.330Z,14.50
2017-10-08T14:15:06.802Z,14.60
2017-10-08T14:17:34.288Z,14.50
2017-10-08T14:20:01.788Z,14.50
2017-10-08T14:22:29.277Z,14.40
2017-10-08T14:24:56.754Z,14.20
2017-10-08T14:27:24.231Z,14.20
2017-10-08T14:29:51.717Z,14.20
2017-10-08T14:32:19.189Z,14.20
2017-10-08T14:34:46.761Z,14.10
2017-10-08T14:37:14.237Z,14.10
2017-10-08T14:39:41.712Z,14.20
2017-10-08T14:42:09.201Z,14.20
2017-10-08T14:44:36.669Z,14.20
2017-10-08T14:47:04.444Z,14.20
2017-10-08T14:49:31.921Z,14.20
2017-10-08T14:51:59.413Z,14.20
2017-10-08T14:54:26.905Z,14.10
2017-10-08T14:56:54.421Z,14.10
2017-10-08T14:59:21.914Z,14.20
2017-10-08T15:01:49.390Z,14.20
2017-10-08T15:04:16.866Z,14.20
2017-10-08T15:06:44.361Z,14.10
2017-10-08T15:09:12.609Z,14.00
2017-10-08T15:11:40.097Z,14.00
2017-10-08T15:14:08.361Z,13.90
2017-10-08T15:16:35.833Z,13.90
2017-10-08T15:19:04.069Z,13.90
2017-10-08T15:21:32.320Z,13.80
2017-10-08T15:23:59.794Z,13.80
2017-10-08T15:26:27.540Z,13.80
2017-10-08T15:28:55.013Z,13.80
2017-10-08T15:31:22.492Z,13.70
2017-10-08T15:33:49.987Z,13.80
2017-10-08T15:36:17.466Z,13.80
2017-10-08T15:38:44.945Z,13.70
2017-10-08T15:41:12.429Z,13.70
2017-10-08T15:43:39.897Z,13.60
2017-10-08T15:46:08.165Z,13.60
2017-10-08T15:48:35.637Z,13.60
2017-10-08T15:51:03.881Z,13.60
2017-10-08T15:53:31.370Z,13.60
2017-10-08T15:55:59.609Z,13.50
2017-10-08T15:58:27.872Z,13.40
2017-10-08T16:00:55.342Z,13.40
2017-10-08T16:03:22.833Z,13.40
2017-10-08T16:05:51.108Z,13.20
2017-10-08T16:08:18.552Z,13.20
2017-10-08T16:10:46.458Z,13.20
2017-10-08T16:13:13.929Z,13.20
2017-10-08T16:15:41.420Z,13.20
2017-10-08T16:18:08.897Z,13.10
2017-10-08T16:20:37.426Z,13.10
2017-10-08T16:23:04.921Z,13.10
2017-10-08T16:25:32.393Z,13.10
2017-10-08T16:28:00.630Z,13.10
2017-10-08T16:30:28.119Z,13.10
2017-10-08T16:32:55.589Z,13.00
2017-10-08T16:35:24.112Z,12.90
2017-10-08T16:37:51.581Z,13.00
2017-10-08T16:40:19.094Z,13.00
2017-10-08T16:42:47.345Z,12.80
2017-10-08T16:45:14.818Z,12.80
2017-10-08T16:47:43.077Z,12.80
2017-10-08T16:50:10.553Z,12.70
2017-10-08T16:52:38.817Z,12.60
2017-10-08T16:55:06.309Z,12.60
2017-10-08T16:57:33.785Z,12.60
2017-10-08T17:00:01.277Z,12.60
2017-10-08T17:02:28.749Z,12.60
2017-10-08T17:04:56.280Z,12.60
2017-10-08T17:07:23.773Z,12.50
2017-10-08T17:09:52.017Z,12.50
2017-10-08T17:12:19.493Z,12.50
2017-10-08T17:14:47.749Z,12.50
2017-10-08T17:17:15.225Z,12.40
2017-10-08T17:19:42.713Z,12.40
2017-10-08T17:22:10.261Z,12.40
2017-10-08T17:24:38.521Z,12.40
2017-10-08T17:27:05.997Z,12.30
2017-10-08T17:29:33.493Z,12.30
2017-10-08T17:32:00.988Z,12.30
2017-10-08T17:34:28.461Z,12.30
2017-10-08T17:36:56.702Z,12.30
2017-10-08T17:39:24.200Z,12.30
2017-10-08T17:41:51.679Z,12.30
2017-10-08T17:44:19.152Z,12.30
2017-10-08T17:46:46.906Z,12.20
2017-10-08T17:49:14.377Z,12.20
2017-10-08T17:51:41.915Z,12.10
2017-10-08T17:54:09.389Z,12.10
2017-10-08T17:56:36.885Z,12.10
2017-10-08T17:59:04.353Z,12.10
2017-10-08T18:01:32.589Z,12.10
2017-10-08T18:04:00.105Z,12.00
2017-10-08T18:06:27.577Z,12.00
2017-10-08T18:08:55.051Z,12.00
2017-10-08T18:11:22.542Z,11.90
2017-10-08T18:13:50.130Z,11.90
2017-10-08T18:16:17.613Z,11.90
2017-10-08T18:18:45.101Z,11.90
2017-10-08T18:21:12.578Z,11.80
2017-10-08T18:23:40.101Z,11.80
2017-10-08T18:26:07.580Z,11.80
2017-10-08T18:28:35.066Z,11.80
2017-10-08T18:31:03.397Z,11.80
2017-10-08T18:33:30.869Z,11.80
2017-10-08T18:35:58.410Z,11.80
2017-10-08T18:38:25.890Z,11.80
2017-10-08T18:40:53.365Z,11.80
2017-10-08T18:43:21.637Z,11.80
2017-10-08T18:45:49.110Z,11.80
2017-10-08T18:48:17.385Z,11.80
2017-10-08T18:50:45.750Z,11.80
2017-10-08T18:53:13.993Z,11.80
2017-10-08T18:55:41.489Z,11.80
2017-10-08T18:58:09.730Z,11.80
2017-10-08T19:00:37.306Z,11.80
2017-10-08T19:03:04.805Z,11.80
2017-10-08T19:05:32.319Z,11.80
2017-10-08T19:07:59.827Z,11.80
2017-10-08T19:10:27.325Z,11.80
2017-10-08T19:12:54.797Z,11.80
2017-10-08T19:15:22.276Z,11.80
2017-10-08T19:17:49.770Z,11.80
2017-10-08T19:20:17.257Z,11.80
2017-10-08T19:22:44.758Z,11.80
2017-10-08T19:25:12.234Z,11.80
2017-10-08T19:27:39.714Z,11.80
2017-10-08T19:30:07.234Z,11.80
2017-10-08T19:32:34.709Z,11.80
2017-10-08T19:35:02.211Z,11.80
2017-10-08T19:37:29.714Z,11.80
2017-10-08T19:39:57.216Z,11.80
2017-10-08T19:42:24.701Z,11.80
2017-10-08T19:44:52.961Z,11.80
2017-10-08T19:47:20.437Z,11.70
2017-10-08T19:49:48.698Z,11.70
2017-10-08T19:52:16.194Z,11.60
2017-10-08T19:54:43.698Z,11.70
2017-10-08T19:57:11.193Z,11.70
2017-10-08T19:59:39.432Z,11.70
2017-10-08T20:02:06.917Z,11.70
2017-10-08T20:04:35.190Z,11.70
2017-10-08T20:07:03.432Z,11.70
2017-10-08T20:09:30.914Z,11.60
2017-10-08T20:11:59.180Z,11.70
2017-10-08T20:14:26.655Z,11.60
2017-10-08T20:16:54.897Z,11.60
2017-10-08T20:19:22.413Z,11.60
2017-10-08T20:21:50.205Z,11.60
2017-10-08T20:24:17.860Z,11.60
2017-10-08T20:26:45.401Z,11.60
2017-10-08T20:29:13.564Z,11.60
2017-10-08T20:31:41.880Z,11.60
2017-10-08T20:34:10.155Z,11.70
2017-10-08T20:36:37.900Z,11.70
2017-10-08T20:39:05.407Z,11.70
2017-10-08T20:41:33.224Z,11.70
2017-10-08T20:44:01.157Z,11.60
2017-10-08T20:46:29.673Z,11.60
2017-10-08T20:48:59.054Z,11.60
2017-10-08T20:51:27.867Z,11.60
2017-10-08T20:56:30.106Z,11.50
2017-10-08T20:58:57.772Z,11.50
2017-10-08T21:01:26.013Z,11.50
2017-10-08T21:03:53.489Z,11.50
2017-10-08T21:06:20.982Z,11.50
2017-10-08T21:08:48.454Z,11.50
2017-10-08T21:11:15.946Z,11.50
2017-10-08T21:13:43.421Z,11.60
2017-10-08T21:16:11.667Z,11.70
2017-10-08T21:18:39.934Z,11.70
2017-10-08T21:21:07.411Z,11.70
2017-10-08T21:23:34.892Z,11.70
2017-10-08T21:26:03.153Z,11.70
2017-10-08T21:28:30.625Z,11.70
2017-10-08T21:30:58.884Z,11.70
2017-10-08T21:33:26.605Z,11.70
2017-10-08T21:35:54.099Z,11.70
2017-10-08T21:38:21.573Z,11.70
2017-10-08T21:40:49.045Z,11.80
2017-10-08T21:43:17.326Z,11.80
2017-10-08T21:45:45.606Z,11.80
2017-10-08T21:48:13.081Z,11.80
2017-10-08T21:50:40.579Z,11.80
2017-10-08T21:53:08.057Z,11.80
2017-10-08T21:55:36.372Z,11.80
2017-10-08T21:58:03.849Z,11.80
2017-10-08T22:00:31.332Z,11.70
2017-10-08T22:02:58.825Z,11.60
2017-10-08T22:05:26.314Z,11.60
2017-10-08T22:07:53.790Z,11.50
2017-10-08T22:10:21.293Z,11.50
2017-10-08T22:12:48.770Z,11.50
2017-10-08T22:15:16.250Z,11.50
2017-10-08T22:17:44.513Z,11.40
2017-10-08T22:20:11.989Z,11.40
2017-10-08T22:22:39.468Z,11.40
2017-10-08T22:25:06.984Z,11.40
2017-10-08T22:27:34.465Z,11.40
2017-10-08T22:30:01.958Z,11.30
2017-10-08T22:32:30.201Z,11.30
2017-10-08T22:34:57.674Z,11.30
2017-10-08T22:37:25.169Z,11.30
2017-10-08T22:39:52.649Z,11.40
2017-10-08T22:42:20.129Z,11.40
2017-10-08T22:44:48.385Z,11.40
2017-10-08T22:47:15.867Z,11.40
2017-10-08T22:49:43.357Z,11.40
2017-10-08T22:52:11.606Z,11.40
2017-10-08T22:54:39.097Z,11.40
2017-10-08T22:57:07.349Z,11.40
2017-10-08T22:59:35.357Z,11.40
2017-10-08T23:02:02.855Z,11.40
2017-10-08T23:04:30.329Z,11.50
2017-10-08T23:06:57.807Z,11.50
2017-10-08T23:09:26.062Z,11.50
2017-10-08T23:11:53.541Z,11.40
2017-10-08T23:14:21.802Z,11.50
2017-10-08T23:16:49.300Z,11.50
2017-10-08T23:19:16.992Z,11.50
2017-10-08T23:21:44.488Z,11.50
2017-10-08T23:24:12.735Z,11.50
2017-10-08T23:26:40.217Z,11.60
2017-10-08T23:29:08.480Z,11.50
2017-10-08T23:31:35.958Z,11.50
2017-10-08T23:34:04.198Z,11.60
2017-10-08T23:36:32.143Z,11.50
2017-10-08T23:38:59.634Z,11.50
2017-10-08T23:41:27.114Z,11.60
2017-10-08T23:43:55.369Z,11.60
2017-10-08T23:46:22.841Z,11.50
2017-10-08T23:48:51.105Z,11.50
2017-10-08T23:51:18.581Z,11.50
2017-10-08T23:53:46.826Z,11.50
2017-10-08T23:56:14.329Z,11.50
2017-10-08T23:58:41.830Z,11.50
